Kruger Mpumalanga International Airport

Airport
ICAO code: 
FAKN
IATA Code: 
MQP
Summary
ICAO Region: 
AFI
Territory: 
Location: 
, Mpumalanga
Serving: 
Mpumalanga
Elevation: 
2829 ft
Coordinates: 
Aerial View: 
25° 22' 59.52" S, 31° 6' 20.16" E
Metar
Observation
FAKN 040200Z AUTO 00000KT //// // ////// 19/19 Q1019
Station
KRUGER MPUMALANG
Date/Time
2021-12-04 02:00:00
Wind direction
Wind speed
00 kts
Lowest cloud amount
n/a
Temperature
19°C
Dew point
19°C
Humidity
100%
QNH
1019 hPa
Weather condition
n/a

Runways

Designator Length Width Surface Rops
5/23 3100 45 ASP Yes/Yes
Airport map: 
Aerial View: 

SKYbrary Partners:

Safety knowledge contributed by: